sensor_id;sensor_type;location;lat;lon;timestamp;temperature;humidity
37642;DHT22;23486;51.956;5.888;2024-01-11T00:00:08;-3.30;99.10
37642;DHT22;23486;51.956;5.888;2024-01-11T00:02:34;-3.30;99.10
37642;DHT22;23486;51.956;5.888;2024-01-11T00:05:00;-3.30;99.20
37642;DHT22;23486;51.956;5.888;2024-01-11T00:07:25;-3.40;99.20
37642;DHT22;23486;51.956;5.888;2024-01-11T00:09:51;-3.40;99.20
37642;DHT22;23486;51.956;5.888;2024-01-11T00:12:16;-3.40;99.30
37642;DHT22;23486;51.956;5.888;2024-01-11T00:14:42;-3.40;99.40
37642;DHT22;23486;51.956;5.888;2024-01-11T00:17:07;-3.50;99.40
37642;DHT22;23486;51.956;5.888;2024-01-11T00:19:33;-3.50;99.50
37642;DHT22;23486;51.956;5.888;2024-01-11T00:21:59;-3.50;99.60
37642;DHT22;23486;51.956;5.888;2024-01-11T00:24:24;-3.50;99.60
37642;DHT22;23486;51.956;5.888;2024-01-11T00:26:50;-3.50;99.70
37642;DHT22;23486;51.956;5.888;2024-01-11T00:29:15;-3.50;99.70
37642;DHT22;23486;51.956;5.888;2024-01-11T00:31:41;-3.50;99.70
37642;DHT22;23486;51.956;5.888;2024-01-11T00:34:06;-3.50;99.80
37642;DHT22;23486;51.956;5.888;2024-01-11T00:36:32;-3.50;99.90
37642;DHT22;23486;51.956;5.888;2024-01-11T00:39:02;-3.60;99.90
37642;DHT22;23486;51.956;5.888;2024-01-11T00:41:28;-3.60;99.90
37642;DHT22;23486;51.956;5.888;2024-01-11T00:43:53;-3.60;99.90
37642;DHT22;23486;51.956;5.888;2024-01-11T00:46:19;-3.60;99.90
37642;DHT22;23486;51.956;5.888;2024-01-11T00:48:44;-3.70;99.90
37642;DHT22;23486;51.956;5.888;2024-01-11T00:51:10;-3.70;99.90
37642;DHT22;23486;51.956;5.888;2024-01-11T00:53:36;-3.70;99.90
37642;DHT22;23486;51.956;5.888;2024-01-11T00:56:01;-3.70;99.90
37642;DHT22;23486;51.956;5.888;2024-01-11T00:58:27;-3.70;99.90
37642;DHT22;23486;51.956;5.888;2024-01-11T01:00:54;-3.80;99.90
37642;DHT22;23486;51.956;5.888;2024-01-11T01:03:20;-3.80;99.90
37642;DHT22;23486;51.956;5.888;2024-01-11T01:05:46;-3.80;99.90
37642;DHT22;23486;51.956;5.888;2024-01-11T01:08:12;-3.80;99.90
37642;DHT22;23486;51.956;5.888;2024-01-11T01:10:38;-3.90;99.90
37642;DHT22;23486;51.956;5.888;2024-01-11T01:13:03;-3.90;99.90
37642;DHT22;23486;51.956;5.888;2024-01-11T01:15:29;-3.90;99.90
37642;DHT22;23486;51.956;5.888;2024-01-11T01:17:55;-3.90;99.90
37642;DHT22;23486;51.956;5.888;2024-01-11T01:20:20;-4.00;99.90
37642;DHT22;23486;51.956;5.888;2024-01-11T01:22:46;-4.00;99.90
37642;DHT22;23486;51.956;5.888;2024-01-11T01:25:11;-4.00;99.90
37642;DHT22;23486;51.956;5.888;2024-01-11T01:27:37;-4.10;99.90
37642;DHT22;23486;51.956;5.888;2024-01-11T01:30:03;-4.10;99.90
37642;DHT22;23486;51.956;5.888;2024-01-11T01:32:29;-4.10;99.90
37642;DHT22;23486;51.956;5.888;2024-01-11T01:34:55;-4.10;99.90
37642;DHT22;23486;51.956;5.888;2024-01-11T01:37:21;-4.20;99.90
37642;DHT22;23486;51.956;5.888;2024-01-11T01:39:47;-4.20;99.90
37642;DHT22;23486;51.956;5.888;2024-01-11T01:42:12;-4.20;99.90
37642;DHT22;23486;51.956;5.888;2024-01-11T01:44:38;-4.20;99.90
37642;DHT22;23486;51.956;5.888;2024-01-11T01:47:06;-4.20;99.90
37642;DHT22;23486;51.956;5.888;2024-01-11T01:49:33;-4.20;99.90
37642;DHT22;23486;51.956;5.888;2024-01-11T01:51:59;-4.30;99.90
37642;DHT22;23486;51.956;5.888;2024-01-11T01:54:24;-4.30;99.90
37642;DHT22;23486;51.956;5.888;2024-01-11T01:56:51;-4.30;99.90
37642;DHT22;23486;51.956;5.888;2024-01-11T01:59:18;-4.30;99.90
37642;DHT22;23486;51.956;5.888;2024-01-11T02:01:46;-4.30;99.90
37642;DHT22;23486;51.956;5.888;2024-01-11T02:04:12;-4.30;99.90
37642;DHT22;23486;51.956;5.888;2024-01-11T02:06:40;-4.30;99.90
37642;DHT22;23486;51.956;5.888;2024-01-11T02:09:06;-4.30;99.90
37642;DHT22;23486;51.956;5.888;2024-01-11T02:11:34;-4.40;99.90
37642;DHT22;23486;51.956;5.888;2024-01-11T02:13:59;-4.40;99.90
37642;DHT22;23486;51.956;5.888;2024-01-11T02:16:25;-4.40;99.90
37642;DHT22;23486;51.956;5.888;2024-01-11T02:18:51;-4.40;99.90
37642;DHT22;23486;51.956;5.888;2024-01-11T02:21:17;-4.40;99.90
37642;DHT22;23486;51.956;5.888;2024-01-11T02:23:44;-4.40;99.90
37642;DHT22;23486;51.956;5.888;2024-01-11T02:26:15;-4.40;99.90
37642;DHT22;23486;51.956;5.888;2024-01-11T02:28:45;-4.50;99.90
37642;DHT22;23486;51.956;5.888;2024-01-11T02:31:12;-4.50;99.90
37642;DHT22;23486;51.956;5.888;2024-01-11T02:33:39;-4.50;99.90
37642;DHT22;23486;51.956;5.888;2024-01-11T02:36:06;-4.50;99.90
37642;DHT22;23486;51.956;5.888;2024-01-11T02:38:33;-4.50;99.90
37642;DHT22;23486;51.956;5.888;2024-01-11T02:40:59;-4.50;99.90
37642;DHT22;23486;51.956;5.888;2024-01-11T02:43:25;-4.50;99.90
37642;DHT22;23486;51.956;5.888;2024-01-11T02:45:54;-4.60;99.90
37642;DHT22;23486;51.956;5.888;2024-01-11T02:48:21;-4.50;99.90
37642;DHT22;23486;51.956;5.888;2024-01-11T02:50:48;-4.50;99.90
37642;DHT22;23486;51.956;5.888;2024-01-11T02:53:14;-4.60;99.90
37642;DHT22;23486;51.956;5.888;2024-01-11T02:55:39;-4.60;99.90
37642;DHT22;23486;51.956;5.888;2024-01-11T02:58:05;-4.60;99.90
37642;DHT22;23486;51.956;5.888;2024-01-11T03:00:30;-4.60;99.90
37642;DHT22;23486;51.956;5.888;2024-01-11T03:02:56;-4.60;99.90
37642;DHT22;23486;51.956;5.888;2024-01-11T03:05:21;-4.70;99.90
37642;DHT22;23486;51.956;5.888;2024-01-11T03:07:47;-4.70;99.90
37642;DHT22;23486;51.956;5.888;2024-01-11T03:10:12;-4.70;99.90
37642;DHT22;23486;51.956;5.888;2024-01-11T03:12:39;-4.80;99.90
37642;DHT22;23486;51.956;5.888;2024-01-11T03:15:05;-4.80;99.90
37642;DHT22;23486;51.956;5.888;2024-01-11T03:17:31;-4.80;99.90
37642;DHT22;23486;51.956;5.888;2024-01-11T03:19:57;-4.80;99.90
37642;DHT22;23486;51.956;5.888;2024-01-11T03:22:23;-4.80;99.90
37642;DHT22;23486;51.956;5.888;2024-01-11T03:24:51;-4.80;99.90
37642;DHT22;23486;51.956;5.888;2024-01-11T03:27:19;-4.80;99.90
37642;DHT22;23486;51.956;5.888;2024-01-11T03:29:45;-4.80;99.90
37642;DHT22;23486;51.956;5.888;2024-01-11T03:32:10;-4.80;99.90
37642;DHT22;23486;51.956;5.888;2024-01-11T03:34:39;-4.80;99.90
37642;DHT22;23486;51.956;5.888;2024-01-11T03:37:04;-4.80;99.90
37642;DHT22;23486;51.956;5.888;2024-01-11T03:39:30;-4.80;99.90
37642;DHT22;23486;51.956;5.888;2024-01-11T03:41:56;-4.80;99.90
37642;DHT22;23486;51.956;5.888;2024-01-11T03:44:22;-4.80;99.90
37642;DHT22;23486;51.956;5.888;2024-01-11T03:46:48;-4.90;99.90
37642;DHT22;23486;51.956;5.888;2024-01-11T03:49:13;-4.80;99.90
37642;DHT22;23486;51.956;5.888;2024-01-11T03:51:39;-4.90;99.90
37642;DHT22;23486;51.956;5.888;2024-01-11T03:54:05;-4.90;99.90
37642;DHT22;23486;51.956;5.888;2024-01-11T03:56:30;-4.90;99.90
37642;DHT22;23486;51.956;5.888;2024-01-11T03:58:56;-4.90;99.90
37642;DHT22;23486;51.956;5.888;2024-01-11T04:01:22;-4.90;99.90
37642;DHT22;23486;51.956;5.888;2024-01-11T04:03:47;-5.00;99.90
37642;DHT22;23486;51.956;5.888;2024-01-11T04:06:21;-5.00;99.90
37642;DHT22;23486;51.956;5.888;2024-01-11T04:08:47;-5.10;99.90
37642;DHT22;23486;51.956;5.888;2024-01-11T04:11:12;-5.10;99.90
37642;DHT22;23486;51.956;5.888;2024-01-11T04:13:38;-5.10;99.90
37642;DHT22;23486;51.956;5.888;2024-01-11T04:16:07;-5.10;99.90
37642;DHT22;23486;51.956;5.888;2024-01-11T04:18:33;-5.10;99.90
37642;DHT22;23486;51.956;5.888;2024-01-11T04:21:02;-5.10;99.90
37642;DHT22;23486;51.956;5.888;2024-01-11T04:23:27;-5.10;99.90
37642;DHT22;23486;51.956;5.888;2024-01-11T04:25:54;-5.10;99.90
37642;DHT22;23486;51.956;5.888;2024-01-11T04:28:20;-5.10;99.90
37642;DHT22;23486;51.956;5.888;2024-01-11T04:30:45;-5.10;99.90
37642;DHT22;23486;51.956;5.888;2024-01-11T04:33:11;-5.10;99.90
37642;DHT22;23486;51.956;5.888;2024-01-11T04:35:37;-5.10;99.90
37642;DHT22;23486;51.956;5.888;2024-01-11T04:38:02;-5.10;99.90
37642;DHT22;23486;51.956;5.888;2024-01-11T04:40:28;-5.10;99.90
37642;DHT22;23486;51.956;5.888;2024-01-11T04:42:54;-5.10;99.90
37642;DHT22;23486;51.956;5.888;2024-01-11T04:45:19;-5.10;99.90
37642;DHT22;23486;51.956;5.888;2024-01-11T04:47:45;-5.10;99.90
37642;DHT22;23486;51.956;5.888;2024-01-11T04:50:11;-5.10;99.90
37642;DHT22;23486;51.956;5.888;2024-01-11T04:52:36;-5.10;99.90
37642;DHT22;23486;51.956;5.888;2024-01-11T04:55:02;-5.10;99.90
37642;DHT22;23486;51.956;5.888;2024-01-11T04:57:28;-5.10;99.90
37642;DHT22;23486;51.956;5.888;2024-01-11T04:59:53;-5.10;99.90
37642;DHT22;23486;51.956;5.888;2024-01-11T05:02:22;-5.10;99.90
37642;DHT22;23486;51.956;5.888;2024-01-11T05:04:50;-5.10;99.90
37642;DHT22;23486;51.956;5.888;2024-01-11T05:07:16;-5.20;99.90
37642;DHT22;23486;51.956;5.888;2024-01-11T05:09:41;-5.20;99.90
37642;DHT22;23486;51.956;5.888;2024-01-11T05:12:07;-5.20;99.90
37642;DHT22;23486;51.956;5.888;2024-01-11T05:14:32;-5.20;99.90
37642;DHT22;23486;51.956;5.888;2024-01-11T05:16:58;-5.20;99.90
37642;DHT22;23486;51.956;5.888;2024-01-11T05:19:24;-5.20;99.90
37642;DHT22;23486;51.956;5.888;2024-01-11T05:21:49;-5.20;99.90
37642;DHT22;23486;51.956;5.888;2024-01-11T05:24:15;-5.30;99.90
37642;DHT22;23486;51.956;5.888;2024-01-11T05:26:40;-5.30;99.90
37642;DHT22;23486;51.956;5.888;2024-01-11T05:29:07;-5.30;99.90
37642;DHT22;23486;51.956;5.888;2024-01-11T05:31:33;-5.30;99.90
37642;DHT22;23486;51.956;5.888;2024-01-11T05:33:59;-5.30;99.90
37642;DHT22;23486;51.956;5.888;2024-01-11T05:36:24;-5.30;99.90
37642;DHT22;23486;51.956;5.888;2024-01-11T05:38:50;-5.30;99.90
37642;DHT22;23486;51.956;5.888;2024-01-11T05:41:15;-5.30;99.90
37642;DHT22;23486;51.956;5.888;2024-01-11T05:43:44;-5.30;99.90
37642;DHT22;23486;51.956;5.888;2024-01-11T05:46:13;-5.30;99.90
37642;DHT22;23486;51.956;5.888;2024-01-11T05:48:38;-5.40;99.90
37642;DHT22;23486;51.956;5.888;2024-01-11T05:51:04;-5.40;99.90
37642;DHT22;23486;51.956;5.888;2024-01-11T05:53:29;-5.40;99.90
37642;DHT22;23486;51.956;5.888;2024-01-11T05:55:55;-5.40;99.90
37642;DHT22;23486;51.956;5.888;2024-01-11T05:58:21;-5.40;99.90
37642;DHT22;23486;51.956;5.888;2024-01-11T06:00:47;-5.40;99.90
37642;DHT22;23486;51.956;5.888;2024-01-11T06:03:12;-5.40;99.90
37642;DHT22;23486;51.956;5.888;2024-01-11T06:05:39;-5.50;99.90
37642;DHT22;23486;51.956;5.888;2024-01-11T06:08:05;-5.40;99.90
37642;DHT22;23486;51.956;5.888;2024-01-11T06:10:30;-5.40;99.90
37642;DHT22;23486;51.956;5.888;2024-01-11T06:12:56;-5.50;99.90
37642;DHT22;23486;51.956;5.888;2024-01-11T06:15:22;-5.50;99.90
37642;DHT22;23486;51.956;5.888;2024-01-11T06:17:48;-5.50;99.90
37642;DHT22;23486;51.956;5.888;2024-01-11T06:20:13;-5.50;99.90
37642;DHT22;23486;51.956;5.888;2024-01-11T06:22:39;-5.50;99.90
37642;DHT22;23486;51.956;5.888;2024-01-11T06:25:04;-5.50;99.90
37642;DHT22;23486;51.956;5.888;2024-01-11T06:27:30;-5.50;99.90
37642;DHT22;23486;51.956;5.888;2024-01-11T06:29:58;-5.50;99.90
37642;DHT22;23486;51.956;5.888;2024-01-11T06:32:24;-5.40;99.90
37642;DHT22;23486;51.956;5.888;2024-01-11T06:34:50;-5.40;99.90
37642;DHT22;23486;51.956;5.888;2024-01-11T06:37:15;-5.40;99.90
37642;DHT22;23486;51.956;5.888;2024-01-11T06:39:41;-5.40;99.90
37642;DHT22;23486;51.956;5.888;2024-01-11T06:42:07;-5.40;99.90
37642;DHT22;23486;51.956;5.888;2024-01-11T06:44:32;-5.30;99.90
37642;DHT22;23486;51.956;5.888;2024-01-11T06:47:00;-5.40;99.90
37642;DHT22;23486;51.956;5.888;2024-01-11T06:49:28;-5.40;99.90
37642;DHT22;23486;51.956;5.888;2024-01-11T06:51:54;-5.40;99.90
37642;DHT22;23486;51.956;5.888;2024-01-11T06:54:20;-5.40;99.90
37642;DHT22;23486;51.956;5.888;2024-01-11T06:56:45;-5.40;99.90
37642;DHT22;23486;51.956;5.888;2024-01-11T06:59:11;-5.50;99.90
37642;DHT22;23486;51.956;5.888;2024-01-11T07:01:36;-5.40;99.90
37642;DHT22;23486;51.956;5.888;2024-01-11T07:04:02;-5.40;99.90
37642;DHT22;23486;51.956;5.888;2024-01-11T07:06:27;-5.40;99.90
37642;DHT22;23486;51.956;5.888;2024-01-11T07:08:53;-5.40;99.90
37642;DHT22;23486;51.956;5.888;2024-01-11T07:11:19;-5.40;99.90
37642;DHT22;23486;51.956;5.888;2024-01-11T07:13:47;-5.40;99.90
37642;DHT22;23486;51.956;5.888;2024-01-11T07:16:13;-5.30;99.90
37642;DHT22;23486;51.956;5.888;2024-01-11T07:18:38;-5.30;99.90
37642;DHT22;23486;51.956;5.888;2024-01-11T07:21:04;-5.30;99.90
37642;DHT22;23486;51.956;5.888;2024-01-11T07:23:29;-5.30;99.90
37642;DHT22;23486;51.956;5.888;2024-01-11T07:25:55;-5.20;99.90
37642;DHT22;23486;51.956;5.888;2024-01-11T07:28:23;-5.20;99.90
37642;DHT22;23486;51.956;5.888;2024-01-11T07:30:51;-5.30;99.90
37642;DHT22;23486;51.956;5.888;2024-01-11T07:33:18;-5.30;99.90
37642;DHT22;23486;51.956;5.888;2024-01-11T07:35:44;-5.30;99.90
37642;DHT22;23486;51.956;5.888;2024-01-11T07:38:11;-5.30;99.90
37642;DHT22;23486;51.956;5.888;2024-01-11T07:40:36;-5.30;99.90
37642;DHT22;23486;51.956;5.888;2024-01-11T07:43:02;-5.30;99.90
37642;DHT22;23486;51.956;5.888;2024-01-11T07:45:29;-5.30;99.90
37642;DHT22;23486;51.956;5.888;2024-01-11T07:47:55;-5.30;99.90
37642;DHT22;23486;51.956;5.888;2024-01-11T07:50:21;-5.30;99.90
37642;DHT22;23486;51.956;5.888;2024-01-11T07:52:47;-5.30;99.90
37642;DHT22;23486;51.956;5.888;2024-01-11T07:55:12;-5.30;99.90
37642;DHT22;23486;51.956;5.888;2024-01-11T07:57:38;-5.30;99.90
37642;DHT22;23486;51.956;5.888;2024-01-11T08:00:05;-5.30;99.90
37642;DHT22;23486;51.956;5.888;2024-01-11T08:02:34;-5.40;99.90
37642;DHT22;23486;51.956;5.888;2024-01-11T08:05:03;-5.40;99.90
37642;DHT22;23486;51.956;5.888;2024-01-11T08:07:32;-5.30;99.90
37642;DHT22;23486;51.956;5.888;2024-01-11T08:09:58;-5.30;99.90
37642;DHT22;23486;51.956;5.888;2024-01-11T08:12:23;-5.30;99.90
37642;DHT22;23486;51.956;5.888;2024-01-11T08:14:50;-5.30;99.90
37642;DHT22;23486;51.956;5.888;2024-01-11T08:17:15;-5.20;99.90
37642;DHT22;23486;51.956;5.888;2024-01-11T08:19:41;-5.20;99.90
37642;DHT22;23486;51.956;5.888;2024-01-11T08:22:08;-5.10;99.90
37642;DHT22;23486;51.956;5.888;2024-01-11T08:24:35;-5.10;99.90
37642;DHT22;23486;51.956;5.888;2024-01-11T08:27:00;-5.10;99.90
37642;DHT22;23486;51.956;5.888;2024-01-11T08:29:26;-5.10;99.90
37642;DHT22;23486;51.956;5.888;2024-01-11T08:31:53;-5.00;99.90
37642;DHT22;23486;51.956;5.888;2024-01-11T08:34:20;-5.00;99.90
37642;DHT22;23486;51.956;5.888;2024-01-11T08:36:46;-4.90;99.90
37642;DHT22;23486;51.956;5.888;2024-01-11T08:39:13;-4.90;99.90
37642;DHT22;23486;51.956;5.888;2024-01-11T08:41:40;-4.90;99.90
37642;DHT22;23486;51.956;5.888;2024-01-11T08:44:06;-4.80;99.90
37642;DHT22;23486;51.956;5.888;2024-01-11T08:46:52;-4.80;99.90
37642;DHT22;23486;51.956;5.888;2024-01-11T08:49:17;-4.70;99.90
37642;DHT22;23486;51.956;5.888;2024-01-11T08:51:44;-4.70;99.90
37642;DHT22;23486;51.956;5.888;2024-01-11T08:54:10;-4.60;99.90
37642;DHT22;23486;51.956;5.888;2024-01-11T08:56:39;-4.60;99.90
37642;DHT22;23486;51.956;5.888;2024-01-11T08:59:06;-4.40;99.90
37642;DHT22;23486;51.956;5.888;2024-01-11T09:01:37;-4.40;99.90
37642;DHT22;23486;51.956;5.888;2024-01-11T09:04:03;-4.40;99.90
37642;DHT22;23486;51.956;5.888;2024-01-11T09:06:29;-4.30;99.90
37642;DHT22;23486;51.956;5.888;2024-01-11T09:08:54;-4.20;99.90
37642;DHT22;23486;51.956;5.888;2024-01-11T09:11:20;-4.10;99.90
37642;DHT22;23486;51.956;5.888;2024-01-11T09:13:55;-4.10;99.90
37642;DHT22;23486;51.956;5.888;2024-01-11T09:16:20;-4.10;99.90
37642;DHT22;23486;51.956;5.888;2024-01-11T09:18:47;-4.00;99.90
37642;DHT22;23486;51.956;5.888;2024-01-11T09:21:12;-4.00;99.90
37642;DHT22;23486;51.956;5.888;2024-01-11T09:23:38;-3.90;99.90
37642;DHT22;23486;51.956;5.888;2024-01-11T09:26:04;-3.90;99.90
37642;DHT22;23486;51.956;5.888;2024-01-11T09:28:30;-3.80;99.90
37642;DHT22;23486;51.956;5.888;2024-01-11T09:30:55;-3.70;99.90
37642;DHT22;23486;51.956;5.888;2024-01-11T09:33:25;-3.70;99.90
37642;DHT22;23486;51.956;5.888;2024-01-11T09:35:51;-3.60;99.90
37642;DHT22;23486;51.956;5.888;2024-01-11T09:38:16;-3.50;99.90
37642;DHT22;23486;51.956;5.888;2024-01-11T09:40:45;-3.40;99.90
37642;DHT22;23486;51.956;5.888;2024-01-11T09:43:12;-3.40;99.90
37642;DHT22;23486;51.956;5.888;2024-01-11T09:45:38;-3.30;99.90
37642;DHT22;23486;51.956;5.888;2024-01-11T09:48:06;-3.30;99.90
37642;DHT22;23486;51.956;5.888;2024-01-11T09:50:32;-3.30;99.90
37642;DHT22;23486;51.956;5.888;2024-01-11T09:52:58;-3.20;99.90
37642;DHT22;23486;51.956;5.888;2024-01-11T09:55:28;-3.20;99.90
37642;DHT22;23486;51.956;5.888;2024-01-11T09:57:56;-3.20;99.90
37642;DHT22;23486;51.956;5.888;2024-01-11T10:00:25;-3.20;99.90
37642;DHT22;23486;51.956;5.888;2024-01-11T10:02:51;-3.20;99.90
37642;DHT22;23486;51.956;5.888;2024-01-11T10:05:18;-3.10;99.90
37642;DHT22;23486;51.956;5.888;2024-01-11T10:07:44;-3.10;99.90
37642;DHT22;23486;51.956;5.888;2024-01-11T10:10:11;-3.10;99.90
37642;DHT22;23486;51.956;5.888;2024-01-11T10:12:43;-3.00;99.90
37642;DHT22;23486;51.956;5.888;2024-01-11T10:15:10;-2.90;99.90
37642;DHT22;23486;51.956;5.888;2024-01-11T10:17:45;-2.90;99.90
37642;DHT22;23486;51.956;5.888;2024-01-11T10:20:12;-2.80;99.90
37642;DHT22;23486;51.956;5.888;2024-01-11T10:22:43;-2.80;99.90
37642;DHT22;23486;51.956;5.888;2024-01-11T10:25:12;-2.80;99.90
37642;DHT22;23486;51.956;5.888;2024-01-11T10:27:41;-2.70;99.90
37642;DHT22;23486;51.956;5.888;2024-01-11T10:30:08;-2.70;99.90
37642;DHT22;23486;51.956;5.888;2024-01-11T10:32:34;-2.60;99.90
37642;DHT22;23486;51.956;5.888;2024-01-11T10:35:01;-2.50;99.90
37642;DHT22;23486;51.956;5.888;2024-01-11T10:37:31;-2.40;99.90
37642;DHT22;23486;51.956;5.888;2024-01-11T10:39:58;-2.40;99.90
37642;DHT22;23486;51.956;5.888;2024-01-11T10:42:27;-2.40;99.90
37642;DHT22;23486;51.956;5.888;2024-01-11T10:44:59;-2.40;99.90
37642;DHT22;23486;51.956;5.888;2024-01-11T10:47:30;-2.30;99.90
37642;DHT22;23486;51.956;5.888;2024-01-11T10:49:57;-2.20;99.90
37642;DHT22;23486;51.956;5.888;2024-01-11T10:52:36;-2.10;99.90
37642;DHT22;23486;51.956;5.888;2024-01-11T10:55:05;-2.10;99.90
37642;DHT22;23486;51.956;5.888;2024-01-11T10:57:35;-2.00;99.90
37642;DHT22;23486;51.956;5.888;2024-01-11T11:00:01;-2.00;99.90
37642;DHT22;23486;51.956;5.888;2024-01-11T11:02:29;-2.00;99.90
37642;DHT22;23486;51.956;5.888;2024-01-11T11:04:56;-1.90;99.90
37642;DHT22;23486;51.956;5.888;2024-01-11T11:07:22;-1.80;99.90
37642;DHT22;23486;51.956;5.888;2024-01-11T11:09:49;-1.70;99.90
37642;DHT22;23486;51.956;5.888;2024-01-11T11:12:18;-1.60;99.90
37642;DHT22;23486;51.956;5.888;2024-01-11T11:14:45;-1.50;99.90
37642;DHT22;23486;51.956;5.888;2024-01-11T11:17:15;-1.40;99.90
37642;DHT22;23486;51.956;5.888;2024-01-11T11:19:42;-1.40;99.90
37642;DHT22;23486;51.956;5.888;2024-01-11T11:22:07;-1.40;99.90
37642;DHT22;23486;51.956;5.888;2024-01-11T11:24:36;-1.30;99.90
37642;DHT22;23486;51.956;5.888;2024-01-11T11:27:01;-1.30;99.90
37642;DHT22;23486;51.956;5.888;2024-01-11T11:29:28;-1.20;99.90
37642;DHT22;23486;51.956;5.888;2024-01-11T11:31:56;-1.20;99.90
37642;DHT22;23486;51.956;5.888;2024-01-11T11:34:41;-1.20;99.90
37642;DHT22;23486;51.956;5.888;2024-01-11T11:37:10;-1.10;99.90
37642;DHT22;23486;51.956;5.888;2024-01-11T11:39:36;-1.10;99.90
37642;DHT22;23486;51.956;5.888;2024-01-11T11:42:03;-1.00;99.90
37642;DHT22;23486;51.956;5.888;2024-01-11T11:44:29;-1.00;99.90
37642;DHT22;23486;51.956;5.888;2024-01-11T11:47:16;-0.90;99.90
37642;DHT22;23486;51.956;5.888;2024-01-11T11:50:07;-0.90;99.90
37642;DHT22;23486;51.956;5.888;2024-01-11T11:52:37;-0.80;99.90
37642;DHT22;23486;51.956;5.888;2024-01-11T11:55:04;-0.80;99.90
37642;DHT22;23486;51.956;5.888;2024-01-11T11:57:30;-0.80;99.90
37642;DHT22;23486;51.956;5.888;2024-01-11T11:59:56;-0.70;99.90
37642;DHT22;23486;51.956;5.888;2024-01-11T12:02:26;-0.70;99.90
37642;DHT22;23486;51.956;5.888;2024-01-11T12:04:53;-0.60;99.90
37642;DHT22;23486;51.956;5.888;2024-01-11T12:07:20;-0.60;99.90
37642;DHT22;23486;51.956;5.888;2024-01-11T12:09:46;-0.60;99.90
37642;DHT22;23486;51.956;5.888;2024-01-11T12:12:12;-0.50;99.90
37642;DHT22;23486;51.956;5.888;2024-01-11T12:14:38;-0.50;99.90
37642;DHT22;23486;51.956;5.888;2024-01-11T12:17:06;-0.50;99.90
37642;DHT22;23486;51.956;5.888;2024-01-11T12:19:32;-0.40;99.90
37642;DHT22;23486;51.956;5.888;2024-01-11T12:21:58;-0.30;99.90
37642;DHT22;23486;51.956;5.888;2024-01-11T12:24:24;-0.30;99.90
37642;DHT22;23486;51.956;5.888;2024-01-11T12:26:50;-0.20;99.90
37642;DHT22;23486;51.956;5.888;2024-01-11T12:29:23;-0.20;99.90
37642;DHT22;23486;51.956;5.888;2024-01-11T12:31:49;-0.10;99.90
37642;DHT22;23486;51.956;5.888;2024-01-11T12:34:16;-0.10;99.90
37642;DHT22;23486;51.956;5.888;2024-01-11T12:36:41;-0.10;99.90
37642;DHT22;23486;51.956;5.888;2024-01-11T12:39:08;0.00;99.90
37642;DHT22;23486;51.956;5.888;2024-01-11T12:41:35;0.00;99.90
37642;DHT22;23486;51.956;5.888;2024-01-11T12:44:01;0.00;99.90
37642;DHT22;23486;51.956;5.888;2024-01-11T12:46:27;0.00;99.90
37642;DHT22;23486;51.956;5.888;2024-01-11T12:48:53;0.10;99.90
37642;DHT22;23486;51.956;5.888;2024-01-11T12:51:19;0.10;99.90
37642;DHT22;23486;51.956;5.888;2024-01-11T12:53:45;0.10;99.90
37642;DHT22;23486;51.956;5.888;2024-01-11T12:56:14;0.20;99.90
37642;DHT22;23486;51.956;5.888;2024-01-11T12:58:41;0.20;99.90
37642;DHT22;23486;51.956;5.888;2024-01-11T13:01:10;0.20;99.90
37642;DHT22;23486;51.956;5.888;2024-01-11T13:03:43;0.20;99.90
37642;DHT22;23486;51.956;5.888;2024-01-11T13:06:09;0.30;99.90
37642;DHT22;23486;51.956;5.888;2024-01-11T13:08:37;0.30;99.90
37642;DHT22;23486;51.956;5.888;2024-01-11T13:11:05;0.40;99.90
37642;DHT22;23486;51.956;5.888;2024-01-11T13:13:33;0.40;99.90
37642;DHT22;23486;51.956;5.888;2024-01-11T13:16:02;0.40;99.90
37642;DHT22;23486;51.956;5.888;2024-01-11T13:18:39;0.40;99.90
37642;DHT22;23486;51.956;5.888;2024-01-11T13:21:07;0.40;99.90
37642;DHT22;23486;51.956;5.888;2024-01-11T13:23:33;0.50;99.90
37642;DHT22;23486;51.956;5.888;2024-01-11T13:25:59;0.50;99.90
37642;DHT22;23486;51.956;5.888;2024-01-11T13:28:25;0.50;99.90
37642;DHT22;23486;51.956;5.888;2024-01-11T13:30:52;0.60;99.90
37642;DHT22;23486;51.956;5.888;2024-01-11T13:33:23;0.60;99.90
37642;DHT22;23486;51.956;5.888;2024-01-11T13:35:49;0.60;99.90
37642;DHT22;23486;51.956;5.888;2024-01-11T13:38:15;0.60;99.90
37642;DHT22;23486;51.956;5.888;2024-01-11T13:40:41;0.70;99.90
37642;DHT22;23486;51.956;5.888;2024-01-11T13:43:08;0.70;99.90
37642;DHT22;23486;51.956;5.888;2024-01-11T13:45:34;0.70;99.90
37642;DHT22;23486;51.956;5.888;2024-01-11T13:48:04;0.80;99.90
37642;DHT22;23486;51.956;5.888;2024-01-11T13:50:33;0.80;99.90
37642;DHT22;23486;51.956;5.888;2024-01-11T13:52:58;0.80;99.90
37642;DHT22;23486;51.956;5.888;2024-01-11T13:55:24;0.80;99.90
37642;DHT22;23486;51.956;5.888;2024-01-11T13:57:50;0.80;99.90
37642;DHT22;23486;51.956;5.888;2024-01-11T14:00:16;0.90;99.90
37642;DHT22;23486;51.956;5.888;2024-01-11T14:02:44;0.90;99.90
37642;DHT22;23486;51.956;5.888;2024-01-11T14:05:13;0.90;99.90
37642;DHT22;23486;51.956;5.888;2024-01-11T14:07:41;0.90;99.90
37642;DHT22;23486;51.956;5.888;2024-01-11T14:10:08;0.90;99.90
37642;DHT22;23486;51.956;5.888;2024-01-11T14:12:35;0.90;99.90
37642;DHT22;23486;51.956;5.888;2024-01-11T14:15:04;0.90;99.90
37642;DHT22;23486;51.956;5.888;2024-01-11T14:17:33;0.80;99.90
37642;DHT22;23486;51.956;5.888;2024-01-11T14:20:02;0.80;99.90
37642;DHT22;23486;51.956;5.888;2024-01-11T14:22:28;0.80;99.90
37642;DHT22;23486;51.956;5.888;2024-01-11T14:24:54;0.80;99.90
37642;DHT22;23486;51.956;5.888;2024-01-11T14:27:20;0.80;99.90
37642;DHT22;23486;51.956;5.888;2024-01-11T14:29:47;0.80;99.90
37642;DHT22;23486;51.956;5.888;2024-01-11T14:32:13;0.80;99.90
37642;DHT22;23486;51.956;5.888;2024-01-11T14:34:44;0.70;99.90
37642;DHT22;23486;51.956;5.888;2024-01-11T14:37:11;0.70;99.90
37642;DHT22;23486;51.956;5.888;2024-01-11T14:39:37;0.70;99.90
37642;DHT22;23486;51.956;5.888;2024-01-11T14:42:03;0.70;99.90
37642;DHT22;23486;51.956;5.888;2024-01-11T14:44:28;0.70;99.90
37642;DHT22;23486;51.956;5.888;2024-01-11T14:46:55;0.70;99.90
37642;DHT22;23486;51.956;5.888;2024-01-11T14:49:20;0.70;99.90
37642;DHT22;23486;51.956;5.888;2024-01-11T14:51:46;0.70;99.90
37642;DHT22;23486;51.956;5.888;2024-01-11T14:54:12;0.70;99.90
37642;DHT22;23486;51.956;5.888;2024-01-11T14:56:37;0.70;99.90
37642;DHT22;23486;51.956;5.888;2024-01-11T14:59:03;0.60;99.90
37642;DHT22;23486;51.956;5.888;2024-01-11T15:01:29;0.60;99.90
37642;DHT22;23486;51.956;5.888;2024-01-11T15:03:54;0.60;99.90
37642;DHT22;23486;51.956;5.888;2024-01-11T15:06:20;0.60;99.90
37642;DHT22;23486;51.956;5.888;2024-01-11T15:08:46;0.50;99.90
37642;DHT22;23486;51.956;5.888;2024-01-11T15:11:11;0.60;99.90
37642;DHT22;23486;51.956;5.888;2024-01-11T15:13:37;0.50;99.90
37642;DHT22;23486;51.956;5.888;2024-01-11T15:16:02;0.50;99.90
37642;DHT22;23486;51.956;5.888;2024-01-11T15:18:28;0.50;99.90
37642;DHT22;23486;51.956;5.888;2024-01-11T15:20:53;0.50;99.90
37642;DHT22;23486;51.956;5.888;2024-01-11T15:23:19;0.50;99.90
37642;DHT22;23486;51.956;5.888;2024-01-11T15:25:45;0.50;99.90
37642;DHT22;23486;51.956;5.888;2024-01-11T15:28:11;0.50;99.90